Time;durP1;ratioP1;P1;durP2;ratioP2;P2;SDS_P1;SDS_P2;PMS_P1;PMS_P2;Temp;Humidity;BMP_temperature;BMP_pressure;BME280_temperature;BME280_humidity;BME280_pressure;Samples;Min_cycle;Max_cycle;Signal;HPM_P1;HPM_P2
2024/04/20 00:00:24;;;;;;;4.97;2.95;;;;;;;11.17;76.67;99072.19;5422791;26;19992;-63
2024/04/20 00:02:51;;;;;;;5.05;3.10;;;;;;;11.22;76.42;99076.94;5417605;26;20231;-62
2024/04/20 00:05:18;;;;;;;4.05;2.70;;;;;;;11.14;77.52;99078.66;5421771;26;20057;-63
2024/04/20 00:07:47;;;;;;;5.22;3.17;;;;;;;11.18;79.54;99074.66;5420292;26;20011;-63
2024/04/20 00:10:13;;;;;;;5.30;3.17;;;;;;;11.25;80.15;99068.63;5420934;26;19988;-62
2024/04/20 00:12:39;;;;;;;3.10;2.55;;;;;;;11.20;81.20;99067.34;5421074;26;20117;-63
2024/04/20 00:15:06;;;;;;;3.63;2.88;;;;;;;11.22;80.78;99059.22;5422146;26;20111;-63
2024/04/20 00:17:33;;;;;;;5.82;3.50;;;;;;;11.15;81.33;99050.34;5421315;26;20121;-63
2024/04/20 00:19:59;;;;;;;5.45;3.63;;;;;;;11.31;80.42;99046.69;5421244;26;20003;-62
2024/04/20 00:22:25;;;;;;;4.07;3.17;;;;;;;11.35;79.87;99032.88;5421006;26;20934;-63
2024/04/20 00:24:51;;;;;;;5.00;3.03;;;;;;;11.45;79.20;99028.16;5419609;26;19999;-62
2024/04/20 00:27:18;;;;;;;5.65;3.35;;;;;;;11.38;80.27;99021.09;5421177;26;19991;-63
2024/04/20 00:29:44;;;;;;;5.63;3.58;;;;;;;11.43;81.03;99006.28;5421233;26;20195;-63
2024/04/20 00:32:10;;;;;;;6.03;4.15;;;;;;;11.37;81.01;98996.41;5420767;26;20015;-62
2024/04/20 00:34:37;;;;;;;5.05;3.30;;;;;;;11.47;81.47;98990.84;5418725;26;20015;-62
2024/04/20 00:37:06;;;;;;;5.88;4.07;;;;;;;11.44;82.73;98988.53;5422246;26;19988;-63
2024/04/20 00:39:33;;;;;;;6.78;3.30;;;;;;;11.38;83.29;98999.88;5421114;26;20223;-62
2024/04/20 00:42:00;;;;;;;4.68;3.53;;;;;;;11.35;84.08;99013.50;5421792;26;19995;-63
2024/04/20 00:44:26;;;;;;;7.45;3.95;;;;;;;11.53;84.62;99035.19;5420304;26;20052;-62
2024/04/20 00:47:02;;;;;;;7.88;4.00;;;;;;;11.77;83.36;99042.84;5422018;26;20023;-63
2024/04/20 00:49:31;;;;;;;5.47;3.58;;;;;;;12.11;80.08;99044.03;5419957;26;20097;-63
2024/04/20 00:51:59;;;;;;;5.45;3.75;;;;;;;12.27;78.88;99037.63;5421297;26;20000;-62
2024/04/20 00:54:27;;;;;;;6.03;3.72;;;;;;;12.35;78.90;99034.84;5419912;26;19991;-62
2024/04/20 00:56:55;;;;;;;4.57;3.75;;;;;;;12.46;78.49;99037.00;5421008;26;20003;-62
2024/04/20 00:59:22;;;;;;;6.90;4.13;;;;;;;12.62;78.13;99044.72;5420288;26;20012;-62
2024/04/20 01:01:49;;;;;;;7.93;4.30;;;;;;;12.59;77.80;99041.63;5419817;26;20271;-64
2024/04/20 01:04:15;;;;;;;6.07;4.38;;;;;;;12.72;77.35;99033.75;5421257;26;19991;-62
2024/04/20 01:06:41;;;;;;;8.05;3.90;;;;;;;12.87;76.75;99029.16;5420925;26;20031;-63
2024/04/20 01:09:07;;;;;;;6.70;4.28;;;;;;;12.97;75.98;99018.19;5422457;26;19991;-62
2024/04/20 01:11:33;;;;;;;5.57;4.43;;;;;;;13.08;75.43;99018.47;5423227;26;20147;-62
2024/04/20 01:14:02;;;;;;;4.82;3.75;;;;;;;13.16;75.19;99021.97;5424591;26;20011;-63
2024/04/20 01:16:28;;;;;;;6.35;4.13;;;;;;;13.28;74.70;99017.78;5423395;26;19992;-63
2024/04/20 01:18:54;;;;;;;7.32;4.03;;;;;;;13.36;74.28;99009.63;5424140;26;20015;-63
2024/04/20 01:21:24;;;;;;;9.50;4.00;;;;;;;13.36;73.78;99020.28;5423346;26;19991;-62
2024/04/20 01:23:58;;;;;;;4.97;3.83;;;;;;;13.34;74.19;99017.00;5425327;26;20003;-63
2024/04/20 01:26:24;;;;;;;5.38;4.05;;;;;;;13.35;74.02;99018.63;5421697;26;19999;-63
2024/04/20 01:28:50;;;;;;;6.75;4.80;;;;;;;13.37;74.21;99011.28;5424755;26;19992;-63
2024/04/20 01:31:16;;;;;;;7.82;4.78;;;;;;;13.39;73.77;99014.56;5422613;26;20001;-63
2024/04/20 01:33:42;;;;;;;5.82;4.22;;;;;;;13.36;73.62;99015.78;5424472;26;20095;-62
2024/04/20 01:36:08;;;;;;;6.18;4.70;;;;;;;13.35;74.32;99021.28;5421174;26;19995;-62
2024/04/20 01:38:34;;;;;;;5.90;4.38;;;;;;;13.38;74.11;99026.22;5424576;26;19991;-62
2024/04/20 01:41:00;;;;;;;5.63;4.22;;;;;;;13.27;74.46;99032.91;5422905;26;20014;-63
2024/04/20 01:43:26;;;;;;;5.10;4.25;;;;;;;13.24;75.05;99041.28;5422671;26;19999;-63
2024/04/20 01:45:52;;;;;;;6.85;4.40;;;;;;;13.25;75.29;99040.28;5423093;26;20000;-63
2024/04/20 01:48:18;;;;;;;7.57;4.68;;;;;;;13.20;75.50;99034.72;5423112;26;20110;-63
2024/04/20 01:50:44;;;;;;;7.82;4.57;;;;;;;13.23;75.73;99044.97;5423105;26;20211;-63
2024/04/20 01:53:11;;;;;;;5.45;4.07;;;;;;;13.27;75.82;99048.03;5422318;26;19998;-63
2024/04/20 01:55:36;;;;;;;7.53;4.38;;;;;;;13.27;75.89;99046.22;5422491;26;19995;-62
2024/04/20 01:58:02;;;;;;;8.57;4.68;;;;;;;13.25;76.22;99061.53;5421664;26;19998;-63
2024/04/20 02:00:28;;;;;;;7.90;4.65;;;;;;;13.25;76.31;99063.38;5423581;26;20202;-62
2024/04/20 02:02:54;;;;;;;7.60;5.38;;;;;;;13.27;76.03;99064.81;5421232;26;20015;-62
2024/04/20 02:05:20;;;;;;;7.68;5.03;;;;;;;13.24;76.13;99064.38;5424103;26;20210;-63
2024/04/20 02:07:46;;;;;;;9.73;6.13;;;;;;;13.21;76.51;99057.63;5421275;26;19996;-63
2024/04/20 02:10:12;;;;;;;8.35;4.68;;;;;;;13.06;77.74;99059.53;5424195;26;19999;-64
2024/04/20 02:12:39;;;;;;;6.90;4.72;;;;;;;13.02;78.42;99058.28;5421876;26;19995;-63
2024/04/20 02:15:05;;;;;;;8.00;5.22;;;;;;;12.96;79.16;99062.53;5423210;26;20053;-62
2024/04/20 02:17:31;;;;;;;7.35;5.18;;;;;;;12.94;79.50;99055.78;5420332;26;20002;-62
2024/04/20 02:19:57;;;;;;;7.70;4.85;;;;;;;12.89;80.37;99058.19;5422998;26;20007;-63
2024/04/20 02:22:23;;;;;;;8.05;5.45;;;;;;;12.73;82.12;99052.16;5422585;26;20003;-63
2024/04/20 02:24:49;;;;;;;7.55;5.82;;;;;;;12.81;82.51;99058.34;5422428;26;20006;-62
2024/04/20 02:27:15;;;;;;;7.93;5.57;;;;;;;12.85;82.59;99059.59;5422547;26;19996;-63
2024/04/20 02:29:41;;;;;;;8.15;5.57;;;;;;;12.90;82.63;99068.63;5422219;26;20019;-62
2024/04/20 02:32:07;;;;;;;8.68;4.82;;;;;;;13.00;82.68;99062.97;5422806;26;20115;-63
2024/04/20 02:34:33;;;;;;;7.95;4.95;;;;;;;13.07;82.47;99069.16;5421181;26;19998;-65
2024/04/20 02:37:11;;;;;;;7.93;5.20;;;;;;;13.08;82.96;99068.16;5423807;26;19995;-65
2024/04/20 02:39:39;;;;;;;7.40;5.32;;;;;;;13.18;82.68;99068.66;5420202;26;20019;-64
2024/04/20 02:42:06;;;;;;;7.75;4.95;;;;;;;13.15;83.60;99068.19;5423417;26;20101;-63
2024/04/20 02:44:31;;;;;;;8.38;5.07;;;;;;;13.21;83.67;99062.13;5421956;26;19995;-64
2024/04/20 02:46:57;;;;;;;7.32;5.10;;;;;;;13.28;83.44;99066.47;5423611;26;20032;-64
2024/04/20 02:49:24;;;;;;;8.30;4.78;;;;;;;13.20;83.84;99066.63;5420806;26;20002;-64
2024/04/20 02:51:50;;;;;;;8.48;4.82;;;;;;;13.21;84.28;99065.59;5422430;26;19992;-64
2024/04/20 02:54:17;;;;;;;7.07;4.97;;;;;;;13.10;84.87;99058.13;5422528;26;20003;-64
2024/04/20 02:56:43;;;;;;;7.50;4.70;;;;;;;13.19;84.56;99064.97;5422339;26;20003;-63
2024/04/20 02:59:10;;;;;;;6.75;4.35;;;;;;;13.19;84.76;99061.50;5422452;26;19995;-64
2024/04/20 03:01:36;;;;;;;7.43;5.00;;;;;;;13.24;84.81;99067.06;5423173;26;20375;-63
2024/04/20 03:04:02;;;;;;;6.63;4.72;;;;;;;13.25;85.11;99064.19;5423169;26;20048;-63
2024/04/20 03:06:28;;;;;;;7.43;4.60;;;;;;;13.26;85.18;99068.50;5421887;26;20191;-63
2024/04/20 03:08:54;;;;;;;6.20;4.22;;;;;;;13.34;85.23;99078.16;5421283;26;19996;-63
2024/04/20 03:11:21;;;;;;;5.97;3.65;;;;;;;13.32;85.16;99072.22;5420460;26;19995;-63
2024/04/20 03:13:52;;;;;;;6.07;4.22;;;;;;;13.36;84.97;99076.94;5421835;26;20011;-64
2024/04/20 03:16:19;;;;;;;6.38;3.95;;;;;;;13.46;84.19;99065.13;5421901;26;20003;-64
2024/04/20 03:18:45;;;;;;;6.68;4.65;;;;;;;13.48;83.38;99065.75;5423366;26;20206;-63
2024/04/20 03:21:12;;;;;;;7.18;4.30;;;;;;;13.48;83.79;99068.41;5420433;26;20002;-63
2024/04/20 03:23:38;;;;;;;7.38;4.30;;;;;;;13.54;83.13;99059.66;5423785;26;20079;-63
2024/04/20 03:26:04;;;;;;;5.60;4.00;;;;;;;13.54;82.84;99063.16;5421346;26;20053;-64
2024/04/20 03:28:30;;;;;;;7.38;4.82;;;;;;;13.51;83.03;99050.22;5423197;26;19987;-64
2024/04/20 03:30:56;;;;;;;6.75;4.38;;;;;;;13.52;83.04;99059.00;5420111;26;20000;-63
2024/04/20 03:33:28;;;;;;;7.65;4.78;;;;;;;13.51;82.81;99054.72;5421972;26;19995;-64
2024/04/20 03:35:57;;;;;;;6.70;4.40;;;;;;;13.51;82.79;99052.88;5421739;26;19995;-64
2024/04/20 03:38:26;;;;;;;6.40;4.63;;;;;;;13.61;82.16;99055.19;5421427;26;20434;-63
2024/04/20 03:40:52;;;;;;;6.82;4.60;;;;;;;13.65;81.60;99048.47;5421788;26;19995;-64
2024/04/20 03:43:18;;;;;;;8.65;4.15;;;;;;;13.66;81.49;99044.78;5421339;26;19999;-64
2024/04/20 03:45:51;;;;;;;5.88;4.25;;;;;;;13.54;81.48;99046.38;5421231;26;20000;-64
2024/04/20 03:48:17;;;;;;;6.10;4.45;;;;;;;13.46;82.25;99038.53;5421224;26;20100;-64
2024/04/20 03:50:52;;;;;;;8.73;5.18;;;;;;;13.30;83.66;99042.34;5421602;26;19999;-63
2024/04/20 03:53:20;;;;;;;7.30;4.60;;;;;;;13.35;83.49;99043.38;5420381;26;19995;-64
2024/04/20 03:55:46;;;;;;;7.72;4.45;;;;;;;13.38;83.32;99042.19;5422017;26;20028;-64
2024/04/20 03:58:12;;;;;;;11.40;6.72;;;;;;;13.16;85.18;99046.72;5420455;26;20208;-63
2024/04/20 04:00:38;;;;;;;11.68;6.07;;;;;;;13.19;85.27;99049.03;5421901;26;19995;-64
2024/04/20 04:03:04;;;;;;;11.13;5.82;;;;;;;13.20;85.56;99047.19;5420410;26;20002;-63
2024/04/20 04:05:30;;;;;;;12.95;6.40;;;;;;;13.19;85.97;99057.00;5422243;26;19995;-64
2024/04/20 04:07:56;;;;;;;12.73;5.95;;;;;;;13.10;86.59;99055.47;5420126;26;19999;-63
2024/04/20 04:10:22;;;;;;;9.00;5.88;;;;;;;12.99;87.98;99054.19;5422571;26;20044;-64
2024/04/20 04:12:47;;;;;;;8.95;5.88;;;;;;;13.03;88.08;99059.94;5420260;26;19996;-64
2024/04/20 04:15:13;;;;;;;9.90;5.35;;;;;;;13.06;88.23;99062.19;5423721;26;19995;-64
2024/04/20 04:17:39;;;;;;;9.15;5.85;;;;;;;13.03;88.60;99063.41;5421363;26;20297;-63
2024/04/20 04:20:06;;;;;;;9.35;6.05;;;;;;;12.95;88.95;99058.25;5422510;26;19995;-64
2024/04/20 04:22:32;;;;;;;10.63;6.50;;;;;;;12.84;90.22;99066.75;5420505;26;20000;-64
2024/04/20 04:24:58;;;;;;;10.30;5.45;;;;;;;12.98;89.57;99072.97;5420910;26;20002;-63
2024/04/20 04:27:24;;;;;;;11.38;5.82;;;;;;;13.00;89.59;99076.25;5421013;26;20024;-64
2024/04/20 04:29:50;;;;;;;8.27;5.90;;;;;;;13.01;89.56;99077.91;5421390;26;20279;-64
2024/04/20 04:32:16;;;;;;;10.45;6.88;;;;;;;12.87;90.42;99079.66;5422353;26;20098;-63
2024/04/20 04:34:42;;;;;;;10.52;6.18;;;;;;;13.04;89.87;99077.53;5421942;26;20019;-64
2024/04/20 04:37:08;;;;;;;11.25;6.57;;;;;;;12.97;90.52;99068.69;5421342;26;20069;-64
2024/04/20 04:39:34;;;;;;;9.98;5.93;;;;;;;13.02;90.21;99064.44;5421759;26;19999;-64
2024/04/20 04:42:00;;;;;;;11.25;6.65;;;;;;;13.02;90.71;99060.94;5422098;26;19996;-63
2024/04/20 04:44:26;;;;;;;10.65;6.10;;;;;;;12.99;90.73;99048.06;5386225;26;20099;-63
2024/04/20 04:46:52;;;;;;;8.38;5.75;;;;;;;13.07;90.03;99054.03;5386749;26;20282;-63
2024/04/20 04:49:18;;;;;;;12.32;7.90;;;;;;;13.01;90.55;99049.50;5415562;26;20011;-63
2024/04/20 04:51:44;;;;;;;7.93;5.32;;;;;;;12.94;89.92;99045.16;5422773;26;19991;-64
2024/04/20 04:54:10;;;;;;;10.68;6.28;;;;;;;12.95;89.61;99042.31;5421655;26;20007;-63
2024/04/20 04:56:36;;;;;;;11.82;6.95;;;;;;;13.00;89.37;99039.06;5421736;26;19999;-64
2024/04/20 04:59:03;;;;;;;10.05;6.50;;;;;;;12.96;89.33;99035.97;5420857;26;19996;-63
2024/04/20 05:01:29;;;;;;;10.30;6.72;;;;;;;12.91;90.34;99035.75;5421169;26;20002;-63
2024/04/20 05:03:55;;;;;;;10.88;7.53;;;;;;;13.00;89.77;99044.38;5421388;26;19999;-63
2024/04/20 05:06:21;;;;;;;10.82;5.90;;;;;;;12.88;89.62;99048.59;5421406;26;19991;-63
2024/04/20 05:08:47;;;;;;;9.02;5.80;;;;;;;12.96;89.24;99045.78;5421559;26;19991;-64
2024/04/20 05:11:13;;;;;;;12.77;10.57;;;;;;;13.15;88.99;99055.72;5421241;26;19988;-64
2024/04/20 05:13:39;;;;;;;12.57;10.50;;;;;;;13.24;88.31;99057.22;5421526;26;20012;-63
2024/04/20 05:16:05;;;;;;;11.45;8.85;;;;;;;13.34;86.42;99060.34;5418115;26;20220;-64
2024/04/20 05:18:31;;;;;;;11.35;7.13;;;;;;;13.39;85.16;99060.59;5421516;26;20007;-62
2024/04/20 05:20:57;;;;;;;10.80;8.27;;;;;;;13.34;84.12;99062.19;5384896;26;19988;-62
2024/04/20 05:23:23;;;;;;;9.95;6.97;;;;;;;13.38;83.43;99066.09;5386343;26;19992;-62
2024/04/20 05:25:49;;;;;;;10.85;6.72;;;;;;;13.42;83.65;99068.19;5416424;26;20000;-62
2024/04/20 05:28:15;;;;;;;10.13;6.35;;;;;;;13.50;83.37;99069.84;5422272;26;19991;-64
2024/04/20 05:30:42;;;;;;;11.13;6.63;;;;;;;13.48;83.70;99068.41;5419838;26;20253;-62
2024/04/20 05:33:08;;;;;;;10.48;5.63;;;;;;;13.58;82.94;99072.38;5421503;26;19992;-62
2024/04/20 05:35:37;;;;;;;11.82;6.95;;;;;;;13.61;82.34;99082.63;5420052;26;20005;-63
2024/04/20 05:38:03;;;;;;;12.15;9.25;;;;;;;13.62;82.27;99081.59;5420799;26;20010;-63
2024/04/20 05:40:29;;;;;;;12.75;8.57;;;;;;;13.62;82.80;99086.09;5420287;26;19996;-63
2024/04/20 05:42:56;;;;;;;9.02;6.07;;;;;;;13.66;82.33;99095.34;5419525;26;20037;-64
2024/04/20 05:45:26;;;;;;;9.13;5.53;;;;;;;13.61;82.43;99095.09;5420769;26;20023;-63
2024/04/20 05:47:52;;;;;;;8.15;5.50;;;;;;;13.67;82.80;99104.94;5421128;26;19998;-64
2024/04/20 05:50:18;;;;;;;9.98;5.75;;;;;;;13.67;82.56;99104.94;5422228;26;20003;-63
2024/04/20 05:52:44;;;;;;;9.75;5.65;;;;;;;13.72;82.06;99106.00;5419683;26;19991;-64
2024/04/20 05:55:11;;;;;;;7.20;5.18;;;;;;;13.65;81.82;99107.00;5421226;26;19999;-65
2024/04/20 05:57:37;;;;;;;10.73;5.75;;;;;;;13.74;81.50;99103.16;5423218;26;19992;-64
2024/04/20 06:00:05;;;;;;;8.65;6.07;;;;;;;13.83;81.13;99104.63;5425705;26;19995;-64
2024/04/20 06:02:33;;;;;;;10.20;6.43;;;;;;;13.81;80.97;99092.53;5423209;26;20012;-64
2024/04/20 06:05:02;;;;;;;9.95;6.32;;;;;;;13.91;80.69;99092.97;5425348;26;19995;-63
2024/04/20 06:07:31;;;;;;;10.88;6.45;;;;;;;13.88;81.23;99088.88;5423219;26;20002;-63
2024/04/20 06:09:57;;;;;;;12.77;7.85;;;;;;;13.91;81.68;99092.97;5425182;26;20007;-63
2024/04/20 06:12:23;;;;;;;16.20;8.27;;;;;;;13.96;81.86;99098.53;5423124;26;19999;-62
2024/04/20 06:14:49;;;;;;;17.23;10.63;;;;;;;13.96;81.74;99099.34;5423717;26;19991;-62
2024/04/20 06:17:16;;;;;;;13.88;9.75;;;;;;;13.94;81.27;99100.56;5424428;26;20003;-63
2024/04/20 06:19:42;;;;;;;14.55;8.73;;;;;;;13.97;80.94;99098.31;5424581;26;19995;-63
2024/04/20 06:22:08;;;;;;;12.00;7.43;;;;;;;13.93;80.04;99096.25;5424273;26;19991;-63
2024/04/20 06:24:37;;;;;;;9.68;7.13;;;;;;;14.01;79.58;99096.91;5423581;26;19998;-63
2024/04/20 06:27:05;;;;;;;9.65;6.75;;;;;;;14.06;78.91;99093.66;5424467;26;20003;-63
2024/04/20 06:29:31;;;;;;;11.35;6.55;;;;;;;14.01;77.20;99088.91;5424365;26;19992;-63
2024/04/20 06:31:56;;;;;;;11.98;7.13;;;;;;;14.04;77.89;99088.53;5424184;26;20010;-63
2024/04/20 06:34:23;;;;;;;12.73;6.50;;;;;;;14.10;76.93;99084.22;5423067;26;19995;-62
2024/04/20 06:36:49;;;;;;;12.07;6.25;;;;;;;14.14;76.09;99082.00;5424455;26;20006;-62
2024/04/20 06:39:16;;;;;;;9.52;6.03;;;;;;;14.16;75.44;99086.09;5423104;26;19991;-62
2024/04/20 06:41:42;;;;;;;7.93;5.80;;;;;;;14.30;75.17;99076.28;5424008;26;19996;-62
2024/04/20 06:44:08;;;;;;;8.88;5.60;;;;;;;14.40;72.81;99066.06;5421672;26;20007;-62
2024/04/20 06:46:34;;;;;;;7.78;5.30;;;;;;;14.37;70.66;99055.81;5425016;26;19996;-64
2024/04/20 06:49:01;;;;;;;7.07;4.95;;;;;;;14.42;71.27;99053.41;5423704;26;20504;-63
2024/04/20 06:51:28;;;;;;;7.70;4.97;;;;;;;14.49;70.84;99069.38;5423622;26;20006;-63
2024/04/20 06:53:55;;;;;;;8.77;5.65;;;;;;;14.53;70.58;99054.63;5423404;26;20010;-63
2024/04/20 06:56:21;;;;;;;7.15;4.63;;;;;;;14.57;69.32;99062.03;5423757;26;19999;-63
2024/04/20 06:58:47;;;;;;;9.65;5.32;;;;;;;14.67;68.88;99064.31;5423747;26;20008;-63
2024/04/20 07:01:13;;;;;;;7.63;4.80;;;;;;;14.72;69.03;99064.50;5422780;26;19999;-63
2024/04/20 07:03:40;;;;;;;8.75;5.57;;;;;;;14.65;70.79;99061.84;5421889;26;20006;-63
2024/04/20 07:06:06;;;;;;;5.60;4.75;;;;;;;14.66;69.17;99074.13;5421030;26;20002;-63
2024/04/20 07:08:32;;;;;;;7.88;4.72;;;;;;;14.72;69.88;99069.84;5423704;26;20116;-63
2024/04/20 07:11:00;;;;;;;5.93;4.72;;;;;;;14.73;68.35;99070.66;5422405;26;20091;-64
2024/04/20 07:13:40;;;;;;;6.35;4.63;;;;;;;14.68;66.60;99072.09;5423862;26;19996;-64
2024/04/20 07:16:06;;;;;;;8.13;5.00;;;;;;;14.80;67.68;99076.81;5422356;26;20164;-64
2024/04/20 07:18:32;;;;;;;6.82;5.00;;;;;;;14.91;68.91;99081.50;5423715;26;20007;-63
2024/04/20 07:21:07;;;;;;;5.53;4.00;;;;;;;15.00;66.60;99088.28;5423199;26;19999;-64
2024/04/20 07:23:34;;;;;;;5.65;3.78;;;;;;;15.01;65.96;99090.72;5425069;26;19991;-63
2024/04/20 07:26:02;;;;;;;6.22;4.18;;;;;;;15.04;65.53;99094.00;5421787;26;20256;-63
2024/04/20 07:28:28;;;;;;;5.32;3.95;;;;;;;14.96;65.00;99085.19;5423540;26;20265;-63
2024/04/20 07:30:54;;;;;;;5.18;3.50;;;;;;;15.00;65.05;99074.94;5422271;26;19995;-63
2024/04/20 07:33:21;;;;;;;5.93;3.50;;;;;;;15.00;62.86;99077.63;5422902;26;19995;-63
2024/04/20 07:35:47;;;;;;;5.47;3.88;;;;;;;15.02;62.13;99081.72;5422406;26;20333;-64
2024/04/20 07:38:13;;;;;;;5.10;4.60;;;;;;;14.69;63.11;99078.25;5423075;26;20019;-62
2024/04/20 07:40:39;;;;;;;5.63;3.63;;;;;;;14.82;62.50;99070.25;5423085;26;20203;-63
2024/04/20 07:43:05;;;;;;;6.90;3.80;;;;;;;14.98;62.59;99069.81;5422434;26;20039;-62
2024/04/20 07:45:31;;;;;;;6.63;4.05;;;;;;;14.98;62.60;99064.50;5423651;26;20203;-63
2024/04/20 07:47:57;;;;;;;6.88;3.80;;;;;;;15.16;61.25;99063.84;5422221;26;20023;-62
2024/04/20 07:50:23;;;;;;;5.55;3.75;;;;;;;15.33;59.73;99062.38;5422927;26;20217;-62
2024/04/20 07:52:49;;;;;;;6.15;3.60;;;;;;;15.33;59.28;99054.38;5420987;26;19987;-63
2024/04/20 07:55:17;;;;;;;5.00;4.35;;;;;;;15.56;58.91;99053.06;5422504;26;19991;-63
2024/04/20 07:57:44;;;;;;;6.30;4.07;;;;;;;15.83;59.51;99057.31;5422300;26;20098;-66
2024/04/20 08:00:13;;;;;;;6.60;4.03;;;;;;;16.08;58.67;99049.38;5424181;26;19995;-63
2024/04/20 08:02:40;;;;;;;3.90;3.17;;;;;;;16.18;57.61;99054.25;5387144;26;19997;-63
2024/04/20 08:05:07;;;;;;;4.93;3.35;;;;;;;16.18;56.44;99048.94;5388049;26;19999;-63
2024/04/20 08:07:33;;;;;;;5.72;3.00;;;;;;;16.35;56.22;99049.22;5416608;26;19988;-64
2024/04/20 08:09:59;;;;;;;6.70;3.15;;;;;;;16.47;54.05;99042.97;5423233;26;20003;-63
2024/04/20 08:12:25;;;;;;;3.53;2.85;;;;;;;16.51;53.87;99038.00;5420815;26;20240;-63
2024/04/20 08:14:51;;;;;;;3.22;2.83;;;;;;;16.50;52.16;99034.50;5422548;26;20489;-63
2024/04/20 08:17:18;;;;;;;4.78;3.33;;;;;;;16.52;52.45;99037.78;5421863;26;19999;-63
2024/04/20 08:19:44;;;;;;;5.47;3.60;;;;;;;16.49;53.05;99029.38;5422751;26;20002;-62
2024/04/20 08:22:10;;;;;;;4.30;3.28;;;;;;;16.52;51.94;99029.78;5421904;26;20000;-63
2024/04/20 08:24:36;;;;;;;8.05;3.38;;;;;;;16.61;52.69;99038.34;5420450;26;20098;-62
2024/04/20 08:27:02;;;;;;;4.07;2.70;;;;;;;16.80;52.20;99036.59;5421603;26;19995;-63
2024/04/20 08:29:28;;;;;;;3.05;2.65;;;;;;;16.90;50.02;99039.59;5422006;26;19995;-63
2024/04/20 08:31:54;;;;;;;4.07;2.75;;;;;;;16.99;50.38;99034.78;5422040;26;20060;-63
2024/04/20 08:34:20;;;;;;;4.05;2.45;;;;;;;16.79;49.27;99037.63;5420220;26;19999;-63
2024/04/20 08:36:46;;;;;;;6.68;3.65;;;;;;;16.75;51.15;99034.56;5421584;26;20203;-63
2024/04/20 08:39:12;;;;;;;5.25;3.72;;;;;;;16.68;50.91;99038.34;5421046;26;20192;-63
2024/04/20 08:41:48;;;;;;;5.90;3.75;;;;;;;16.60;51.02;99045.53;5421598;26;19998;-64
2024/04/20 08:44:19;;;;;;;3.60;3.00;;;;;;;16.64;49.41;99037.09;5420820;26;19996;-63
2024/04/20 08:46:49;;;;;;;4.03;3.50;;;;;;;16.70;49.83;99038.94;5423036;26;19992;-63
2024/04/20 08:49:16;;;;;;;3.38;3.08;;;;;;;16.72;50.50;99044.88;5421706;26;20007;-63
2024/04/20 08:51:44;;;;;;;3.80;3.03;;;;;;;16.84;49.68;99035.94;5422249;26;19995;-63
2024/04/20 08:54:12;;;;;;;4.50;3.28;;;;;;;17.02;49.87;99032.47;5421130;26;19999;-62
2024/04/20 08:56:41;;;;;;;4.18;3.10;;;;;;;17.32;49.39;99043.28;5421300;26;19992;-63
2024/04/20 08:59:08;;;;;;;3.60;2.95;;;;;;;17.40;47.21;99026.91;5421191;26;19992;-64
2024/04/20 09:01:38;;;;;;;4.43;2.60;;;;;;;17.44;47.00;99024.63;5422155;26;20498;-63
2024/04/20 09:04:07;;;;;;;4.00;2.78;;;;;;;17.42;47.82;99024.84;5421766;26;19996;-63
2024/04/20 09:06:35;;;;;;;3.95;2.70;;;;;;;17.36;47.81;99012.34;5420514;26;20382;-63
2024/04/20 09:09:05;;;;;;;4.25;2.72;;;;;;;17.48;47.30;99007.88;5413564;26;19992;-64
2024/04/20 09:11:31;;;;;;;2.97;2.75;;;;;;;17.64;46.13;99002.97;5384630;26;20003;-63
2024/04/20 09:13:58;;;;;;;3.42;3.13;;;;;;;17.48;46.75;99005.22;5396737;26;19996;-63
2024/04/20 09:16:24;;;;;;;3.78;3.20;;;;;;;17.67;44.68;99000.69;5420888;26;19987;-63
2024/04/20 09:18:50;;;;;;;3.72;2.83;;;;;;;17.73;44.76;98996.31;5420911;26;20120;-63
2024/04/20 09:21:15;;;;;;;6.07;3.50;;;;;;;17.78;45.94;98993.78;5420546;26;20048;-63
2024/04/20 09:23:43;;;;;;;2.83;2.25;;;;;;;17.80;44.07;98981.78;5422132;26;20003;-63
2024/04/20 09:26:11;;;;;;;3.08;2.30;;;;;;;17.59;43.51;98995.59;5421128;26;20252;-63
2024/04/20 09:28:38;;;;;;;4.75;2.45;;;;;;;17.52;43.75;98984.16;5422376;26;20006;-63
2024/04/20 09:31:04;;;;;;;3.00;2.40;;;;;;;17.51;43.61;98988.69;5422977;26;20007;-63
2024/04/20 09:33:30;;;;;;;3.85;3.55;;;;;;;17.61;43.96;98990.03;5426261;26;19996;-63
2024/04/20 09:35:56;;;;;;;2.28;2.08;;;;;;;17.73;41.27;98980.25;5423570;26;20022;-63
2024/04/20 09:38:23;;;;;;;3.63;2.55;;;;;;;17.90;41.22;98975.06;5425035;26;19991;-64
2024/04/20 09:40:53;;;;;;;2.67;2.08;;;;;;;18.02;40.79;98968.69;5424691;26;20009;-64
2024/04/20 09:43:22;;;;;;;28.65;4.50;;;;;;;17.95;40.86;98964.50;5424825;26;20000;-64
2024/04/20 09:45:50;;;;;;;2.17;2.03;;;;;;;17.72;41.79;98960.69;5423570;26;19999;-63
2024/04/20 09:48:26;;;;;;;2.88;2.10;;;;;;;17.76;42.66;98956.50;5424312;26;20111;-63
2024/04/20 09:51:11;;;;;;;2.47;2.20;;;;;;;17.83;42.55;98957.22;5425231;26;19999;-63
2024/04/20 09:53:40;;;;;;;2.60;2.40;;;;;;;17.84;40.71;98956.19;5423721;26;20007;-63
2024/04/20 09:56:07;;;;;;;2.40;2.20;;;;;;;17.85;39.40;98943.63;5423938;26;20002;-63
2024/04/20 09:58:35;;;;;;;3.55;2.55;;;;;;;17.89;39.37;98941.28;5424872;26;20002;-63
2024/04/20 10:01:02;;;;;;;2.55;2.35;;;;;;;17.64;41.28;98936.84;5425203;26;20011;-63
2024/04/20 10:03:30;;;;;;;3.00;2.25;;;;;;;17.56;40.76;98946.00;5423573;26;19999;-63
2024/04/20 10:05:57;;;;;;;2.33;1.90;;;;;;;17.31;41.83;98950.66;5424371;26;20024;-63
2024/04/20 10:08:24;;;;;;;2.80;2.60;;;;;;;17.26;41.18;98947.84;5423455;26;19999;-62
2024/04/20 10:10:50;;;;;;;2.15;1.85;;;;;;;17.43;42.08;98943.50;5424387;26;20002;-63
2024/04/20 10:13:18;;;;;;;2.80;2.00;;;;;;;17.58;41.66;98950.31;5423536;26;20198;-63
2024/04/20 10:15:47;;;;;;;2.50;1.75;;;;;;;17.71;40.61;98940.31;5425273;26;20209;-63
2024/04/20 10:18:14;;;;;;;2.75;1.90;;;;;;;17.94;39.15;98930.72;5422980;26;20009;-63
2024/04/20 10:20:43;;;;;;;2.10;1.95;;;;;;;18.04;38.68;98922.94;5424923;26;20003;-63
2024/04/20 10:23:16;;;;;;;9.45;2.45;;;;;;;18.12;39.47;98925.28;5422810;26;20154;-63
2024/04/20 10:25:45;;;;;;;3.25;1.80;;;;;;;18.09;40.84;98925.72;5424250;26;20002;-63
2024/04/20 10:28:11;;;;;;;2.72;1.98;;;;;;;18.05;40.23;98925.38;5423757;26;19999;-64
2024/04/20 10:30:37;;;;;;;2.25;2.03;;;;;;;18.03;40.51;98927.47;5425302;26;20214;-63
2024/04/20 10:33:05;;;;;;;2.40;2.20;;;;;;;17.98;39.80;98921.16;5423871;26;20042;-63
2024/04/20 10:35:31;;;;;;;2.92;2.17;;;;;;;18.04;39.39;98909.53;5424499;26;20004;-63
2024/04/20 10:37:59;;;;;;;2.28;2.17;;;;;;;18.13;37.55;98911.66;5424465;26;20194;-63
2024/04/20 10:40:32;;;;;;;2.35;2.15;;;;;;;18.36;38.94;98910.03;5423665;26;19992;-64
2024/04/20 10:43:12;;;;;;;2.53;1.45;;;;;;;18.51;39.79;98910.38;5423628;26;20000;-63
2024/04/20 10:45:39;;;;;;;2.72;2.25;;;;;;;18.35;38.46;98909.22;5423602;26;20320;-63
2024/04/20 10:48:07;;;;;;;4.05;2.28;;;;;;;18.51;40.50;98902.34;5424281;26;19992;-63
2024/04/20 10:50:33;;;;;;;2.35;1.90;;;;;;;18.73;39.07;98897.25;5423367;26;19995;-63
2024/04/20 10:53:06;;;;;;;1.85;1.70;;;;;;;18.93;37.43;98911.09;5422885;26;20011;-63
2024/04/20 10:55:32;;;;;;;3.22;2.08;;;;;;;19.03;36.38;98907.81;5423176;26;20007;-63
2024/04/20 10:57:59;;;;;;;2.17;1.98;;;;;;;19.14;37.06;98907.78;5424108;26;20102;-65
2024/04/20 11:00:25;;;;;;;1.63;1.52;;;;;;;19.18;36.50;98912.69;5423519;26;19998;-65
2024/04/20 11:02:54;;;;;;;2.80;1.67;;;;;;;19.18;36.32;98912.69;5423619;26;19998;-65
2024/04/20 11:05:21;;;;;;;2.30;1.98;;;;;;;19.12;38.36;98909.06;5422915;26;20015;-62
2024/04/20 11:08:01;;;;;;;3.65;2.80;;;;;;;19.05;38.42;98903.84;5423921;26;20123;-63
2024/04/20 11:10:27;;;;;;;3.55;2.55;;;;;;;18.96;38.64;98902.59;5387278;26;19993;-62
2024/04/20 11:13:03;;;;;;;2.60;1.98;;;;;;;19.13;38.35;98905.34;5388825;26;20000;-63
2024/04/20 11:15:30;;;;;;;2.10;1.80;;;;;;;19.16;36.23;98904.06;5420682;26;19996;-63
2024/04/20 11:17:56;;;;;;;2.47;1.73;;;;;;;19.11;36.25;98899.41;5424636;26;20000;-63
2024/04/20 11:20:22;;;;;;;2.50;1.90;;;;;;;18.73;37.19;98902.63;5422624;26;20010;-63
2024/04/20 11:22:50;;;;;;;2.10;1.83;;;;;;;18.38;36.83;98897.22;5422353;26;20300;-62
2024/04/20 11:25:16;;;;;;;1.90;1.70;;;;;;;18.46;37.22;98895.00;5422131;26;20010;-63
2024/04/20 11:27:49;;;;;;;1.70;1.60;;;;;;;18.30;37.63;98902.94;5423371;26;20201;-63
2024/04/20 11:30:15;;;;;;;2.53;2.10;;;;;;;18.39;39.53;98899.66;5423858;26;19987;-63